sensor_id;sensor_type;location;lat;lon;timestamp;P1;durP1;ratioP1;P2;durP2;ratioP2
43248;SDS011;29216;51.248;6.808;2023-12-20T00:01:50;6.10;;;3.65;;
43248;SDS011;29216;51.248;6.808;2023-12-20T00:04:16;5.57;;;3.80;;
43248;SDS011;29216;51.248;6.808;2023-12-20T00:06:42;6.25;;;3.58;;
43248;SDS011;29216;51.248;6.808;2023-12-20T00:09:08;10.52;;;3.55;;
43248;SDS011;29216;51.248;6.808;2023-12-20T00:11:34;7.93;;;3.92;;
43248;SDS011;29216;51.248;6.808;2023-12-20T00:14:00;9.27;;;4.53;;
43248;SDS011;29216;51.248;6.808;2023-12-20T00:16:26;8.20;;;5.00;;
43248;SDS011;29216;51.248;6.808;2023-12-20T00:18:52;5.35;;;4.00;;
43248;SDS011;29216;51.248;6.808;2023-12-20T00:21:18;10.57;;;5.05;;
43248;SDS011;29216;51.248;6.808;2023-12-20T00:23:44;7.72;;;4.47;;
43248;SDS011;29216;51.248;6.808;2023-12-20T00:26:10;10.77;;;5.07;;
43248;SDS011;29216;51.248;6.808;2023-12-20T00:28:36;10.27;;;4.68;;
43248;SDS011;29216;51.248;6.808;2023-12-20T00:31:02;15.77;;;5.30;;
43248;SDS011;29216;51.248;6.808;2023-12-20T00:33:29;8.15;;;4.72;;
43248;SDS011;29216;51.248;6.808;2023-12-20T00:35:55;14.00;;;5.05;;
43248;SDS011;29216;51.248;6.808;2023-12-20T00:38:21;10.32;;;5.63;;
43248;SDS011;29216;51.248;6.808;2023-12-20T00:40:47;7.80;;;4.63;;
43248;SDS011;29216;51.248;6.808;2023-12-20T00:43:14;11.70;;;5.38;;
43248;SDS011;29216;51.248;6.808;2023-12-20T00:45:40;9.57;;;5.70;;
43248;SDS011;29216;51.248;6.808;2023-12-20T00:48:06;10.63;;;5.60;;
43248;SDS011;29216;51.248;6.808;2023-12-20T00:50:32;10.82;;;5.60;;
43248;SDS011;29216;51.248;6.808;2023-12-20T00:52:59;10.90;;;5.82;;
43248;SDS011;29216;51.248;6.808;2023-12-20T00:55:25;13.00;;;4.97;;
43248;SDS011;29216;51.248;6.808;2023-12-20T00:57:51;13.65;;;6.47;;
43248;SDS011;29216;51.248;6.808;2023-12-20T01:00:18;11.90;;;5.82;;
43248;SDS011;29216;51.248;6.808;2023-12-20T01:02:44;16.67;;;7.45;;
43248;SDS011;29216;51.248;6.808;2023-12-20T01:05:14;11.43;;;7.72;;
43248;SDS011;29216;51.248;6.808;2023-12-20T01:07:40;11.88;;;6.90;;
43248;SDS011;29216;51.248;6.808;2023-12-20T01:10:06;11.88;;;7.55;;
43248;SDS011;29216;51.248;6.808;2023-12-20T01:12:32;12.38;;;7.25;;
43248;SDS011;29216;51.248;6.808;2023-12-20T01:14:58;18.95;;;9.32;;
43248;SDS011;29216;51.248;6.808;2023-12-20T01:17:24;16.40;;;9.15;;
43248;SDS011;29216;51.248;6.808;2023-12-20T01:22:17;17.35;;;10.65;;
43248;SDS011;29216;51.248;6.808;2023-12-20T01:24:44;22.00;;;10.13;;
43248;SDS011;29216;51.248;6.808;2023-12-20T01:27:10;21.23;;;10.43;;
43248;SDS011;29216;51.248;6.808;2023-12-20T01:29:36;24.17;;;11.90;;
43248;SDS011;29216;51.248;6.808;2023-12-20T01:32:02;16.85;;;11.55;;
43248;SDS011;29216;51.248;6.808;2023-12-20T01:34:28;24.55;;;12.02;;
43248;SDS011;29216;51.248;6.808;2023-12-20T01:36:54;18.05;;;12.07;;
43248;SDS011;29216;51.248;6.808;2023-12-20T01:39:20;20.40;;;12.38;;
43248;SDS011;29216;51.248;6.808;2023-12-20T01:41:46;19.02;;;11.98;;
43248;SDS011;29216;51.248;6.808;2023-12-20T01:44:12;18.48;;;12.40;;
43248;SDS011;29216;51.248;6.808;2023-12-20T01:46:38;22.52;;;11.18;;
43248;SDS011;29216;51.248;6.808;2023-12-20T01:49:04;24.30;;;12.35;;
43248;SDS011;29216;51.248;6.808;2023-12-20T01:51:30;20.73;;;11.30;;
43248;SDS011;29216;51.248;6.808;2023-12-20T01:53:56;19.40;;;9.85;;
43248;SDS011;29216;51.248;6.808;2023-12-20T01:56:23;16.85;;;9.38;;
43248;SDS011;29216;51.248;6.808;2023-12-20T01:58:49;19.88;;;10.35;;
43248;SDS011;29216;51.248;6.808;2023-12-20T02:01:15;20.67;;;10.32;;
43248;SDS011;29216;51.248;6.808;2023-12-20T02:03:42;19.95;;;9.27;;
43248;SDS011;29216;51.248;6.808;2023-12-20T02:06:08;18.63;;;8.95;;
43248;SDS011;29216;51.248;6.808;2023-12-20T02:08:35;10.43;;;7.88;;
43248;SDS011;29216;51.248;6.808;2023-12-20T02:11:01;15.15;;;7.95;;
43248;SDS011;29216;51.248;6.808;2023-12-20T02:13:27;19.40;;;8.98;;
43248;SDS011;29216;51.248;6.808;2023-12-20T02:15:54;18.60;;;8.20;;
43248;SDS011;29216;51.248;6.808;2023-12-20T02:18:20;19.23;;;9.10;;
43248;SDS011;29216;51.248;6.808;2023-12-20T02:20:46;16.08;;;8.65;;
43248;SDS011;29216;51.248;6.808;2023-12-20T02:23:12;18.85;;;8.93;;
43248;SDS011;29216;51.248;6.808;2023-12-20T02:25:38;21.58;;;9.65;;
43248;SDS011;29216;51.248;6.808;2023-12-20T02:28:04;23.42;;;10.07;;
43248;SDS011;29216;51.248;6.808;2023-12-20T02:30:31;20.75;;;8.75;;
43248;SDS011;29216;51.248;6.808;2023-12-20T02:32:59;21.45;;;9.23;;
43248;SDS011;29216;51.248;6.808;2023-12-20T02:35:25;23.33;;;8.82;;
43248;SDS011;29216;51.248;6.808;2023-12-20T02:37:51;16.25;;;8.65;;
43248;SDS011;29216;51.248;6.808;2023-12-20T02:40:17;26.10;;;9.52;;
43248;SDS011;29216;51.248;6.808;2023-12-20T02:42:43;15.25;;;8.32;;
43248;SDS011;29216;51.248;6.808;2023-12-20T02:45:09;24.08;;;8.38;;
43248;SDS011;29216;51.248;6.808;2023-12-20T02:47:35;23.08;;;7.50;;
43248;SDS011;29216;51.248;6.808;2023-12-20T02:50:01;20.60;;;7.43;;
43248;SDS011;29216;51.248;6.808;2023-12-20T02:52:28;17.10;;;6.50;;
43248;SDS011;29216;51.248;6.808;2023-12-20T02:54:54;24.92;;;7.45;;
43248;SDS011;29216;51.248;6.808;2023-12-20T02:57:20;21.73;;;6.97;;
43248;SDS011;29216;51.248;6.808;2023-12-20T02:59:46;13.57;;;5.22;;
43248;SDS011;29216;51.248;6.808;2023-12-20T03:02:12;21.45;;;5.28;;
43248;SDS011;29216;51.248;6.808;2023-12-20T03:04:38;19.15;;;6.03;;
43248;SDS011;29216;51.248;6.808;2023-12-20T03:07:04;13.88;;;4.90;;
43248;SDS011;29216;51.248;6.808;2023-12-20T03:09:30;13.90;;;4.72;;
43248;SDS011;29216;51.248;6.808;2023-12-20T03:11:56;15.82;;;4.95;;
43248;SDS011;29216;51.248;6.808;2023-12-20T03:14:22;9.73;;;4.50;;
43248;SDS011;29216;51.248;6.808;2023-12-20T03:16:51;18.70;;;5.07;;
43248;SDS011;29216;51.248;6.808;2023-12-20T03:19:17;12.70;;;3.85;;
43248;SDS011;29216;51.248;6.808;2023-12-20T03:21:46;16.95;;;4.45;;
43248;SDS011;29216;51.248;6.808;2023-12-20T03:24:12;23.60;;;4.63;;
43248;SDS011;29216;51.248;6.808;2023-12-20T03:26:38;13.98;;;3.50;;
43248;SDS011;29216;51.248;6.808;2023-12-20T03:29:04;16.65;;;4.47;;
43248;SDS011;29216;51.248;6.808;2023-12-20T03:31:30;13.45;;;3.60;;
43248;SDS011;29216;51.248;6.808;2023-12-20T03:33:56;18.60;;;4.20;;
43248;SDS011;29216;51.248;6.808;2023-12-20T03:36:22;25.42;;;3.67;;
43248;SDS011;29216;51.248;6.808;2023-12-20T03:38:48;18.38;;;3.70;;
43248;SDS011;29216;51.248;6.808;2023-12-20T03:41:14;14.65;;;3.75;;
43248;SDS011;29216;51.248;6.808;2023-12-20T03:43:40;14.95;;;3.90;;
43248;SDS011;29216;51.248;6.808;2023-12-20T03:46:08;14.98;;;5.03;;
43248;SDS011;29216;51.248;6.808;2023-12-20T03:48:34;13.65;;;4.35;;
43248;SDS011;29216;51.248;6.808;2023-12-20T03:51:00;15.20;;;3.88;;
43248;SDS011;29216;51.248;6.808;2023-12-20T03:53:26;15.95;;;3.83;;
43248;SDS011;29216;51.248;6.808;2023-12-20T03:55:52;12.98;;;4.20;;
43248;SDS011;29216;51.248;6.808;2023-12-20T03:58:18;18.33;;;4.00;;
43248;SDS011;29216;51.248;6.808;2023-12-20T04:00:44;19.73;;;4.65;;
43248;SDS011;29216;51.248;6.808;2023-12-20T04:03:10;14.38;;;4.50;;
43248;SDS011;29216;51.248;6.808;2023-12-20T04:05:38;23.05;;;5.22;;
43248;SDS011;29216;51.248;6.808;2023-12-20T04:08:05;17.33;;;3.90;;
43248;SDS011;29216;51.248;6.808;2023-12-20T04:10:31;17.77;;;4.35;;
43248;SDS011;29216;51.248;6.808;2023-12-20T04:12:57;15.77;;;3.55;;
43248;SDS011;29216;51.248;6.808;2023-12-20T04:15:23;14.70;;;3.90;;
43248;SDS011;29216;51.248;6.808;2023-12-20T04:17:49;9.63;;;3.85;;
43248;SDS011;29216;51.248;6.808;2023-12-20T04:20:15;10.57;;;4.00;;
43248;SDS011;29216;51.248;6.808;2023-12-20T04:22:41;17.38;;;4.20;;
43248;SDS011;29216;51.248;6.808;2023-12-20T04:25:07;13.25;;;3.97;;
43248;SDS011;29216;51.248;6.808;2023-12-20T04:27:33;14.10;;;4.05;;
43248;SDS011;29216;51.248;6.808;2023-12-20T04:29:59;11.65;;;4.95;;
43248;SDS011;29216;51.248;6.808;2023-12-20T04:32:25;21.42;;;4.65;;
43248;SDS011;29216;51.248;6.808;2023-12-20T04:34:51;10.82;;;4.22;;
43248;SDS011;29216;51.248;6.808;2023-12-20T04:37:17;14.65;;;5.22;;
43248;SDS011;29216;51.248;6.808;2023-12-20T04:39:43;27.90;;;5.75;;
43248;SDS011;29216;51.248;6.808;2023-12-20T04:42:09;16.85;;;4.93;;
43248;SDS011;29216;51.248;6.808;2023-12-20T04:44:35;12.90;;;4.53;;
43248;SDS011;29216;51.248;6.808;2023-12-20T04:47:01;18.23;;;5.18;;
43248;SDS011;29216;51.248;6.808;2023-12-20T04:49:28;14.10;;;5.25;;
43248;SDS011;29216;51.248;6.808;2023-12-20T04:51:54;18.13;;;6.10;;
43248;SDS011;29216;51.248;6.808;2023-12-20T04:54:20;19.20;;;6.13;;
43248;SDS011;29216;51.248;6.808;2023-12-20T04:56:46;17.30;;;5.63;;
43248;SDS011;29216;51.248;6.808;2023-12-20T04:59:12;20.48;;;6.38;;
43248;SDS011;29216;51.248;6.808;2023-12-20T05:01:38;18.73;;;5.13;;
43248;SDS011;29216;51.248;6.808;2023-12-20T05:04:04;18.83;;;5.72;;
43248;SDS011;29216;51.248;6.808;2023-12-20T05:06:30;17.98;;;6.10;;
43248;SDS011;29216;51.248;6.808;2023-12-20T05:08:56;17.42;;;5.63;;
43248;SDS011;29216;51.248;6.808;2023-12-20T05:11:22;12.13;;;5.32;;
43248;SDS011;29216;51.248;6.808;2023-12-20T05:13:48;22.00;;;5.00;;
43248;SDS011;29216;51.248;6.808;2023-12-20T05:16:14;20.25;;;6.45;;
43248;SDS011;29216;51.248;6.808;2023-12-20T05:18:42;14.95;;;5.03;;
43248;SDS011;29216;51.248;6.808;2023-12-20T05:21:08;19.50;;;6.05;;
43248;SDS011;29216;51.248;6.808;2023-12-20T05:23:35;23.27;;;6.25;;
43248;SDS011;29216;51.248;6.808;2023-12-20T05:26:01;16.60;;;5.47;;
43248;SDS011;29216;51.248;6.808;2023-12-20T05:28:26;15.57;;;5.07;;
43248;SDS011;29216;51.248;6.808;2023-12-20T05:30:53;20.50;;;5.70;;
43248;SDS011;29216;51.248;6.808;2023-12-20T05:33:19;20.83;;;4.78;;
43248;SDS011;29216;51.248;6.808;2023-12-20T05:35:45;18.15;;;4.65;;
43248;SDS011;29216;51.248;6.808;2023-12-20T05:38:11;25.45;;;6.25;;
43248;SDS011;29216;51.248;6.808;2023-12-20T05:40:37;20.63;;;5.72;;
43248;SDS011;29216;51.248;6.808;2023-12-20T05:43:03;24.90;;;6.35;;
43248;SDS011;29216;51.248;6.808;2023-12-20T05:45:29;22.23;;;5.65;;
43248;SDS011;29216;51.248;6.808;2023-12-20T05:47:55;21.55;;;6.47;;
43248;SDS011;29216;51.248;6.808;2023-12-20T05:50:21;19.98;;;5.25;;
43248;SDS011;29216;51.248;6.808;2023-12-20T05:52:47;19.45;;;5.15;;
43248;SDS011;29216;51.248;6.808;2023-12-20T05:55:13;12.50;;;4.60;;
43248;SDS011;29216;51.248;6.808;2023-12-20T05:57:39;23.23;;;5.28;;
43248;SDS011;29216;51.248;6.808;2023-12-20T06:00:05;19.23;;;5.30;;
43248;SDS011;29216;51.248;6.808;2023-12-20T06:02:31;16.25;;;4.75;;
43248;SDS011;29216;51.248;6.808;2023-12-20T06:04:57;17.75;;;5.38;;
43248;SDS011;29216;51.248;6.808;2023-12-20T06:07:23;14.75;;;4.97;;
43248;SDS011;29216;51.248;6.808;2023-12-20T06:09:49;17.17;;;4.88;;
43248;SDS011;29216;51.248;6.808;2023-12-20T06:12:16;17.98;;;5.07;;
43248;SDS011;29216;51.248;6.808;2023-12-20T06:14:42;18.65;;;4.88;;
43248;SDS011;29216;51.248;6.808;2023-12-20T06:17:08;17.70;;;5.32;;
43248;SDS011;29216;51.248;6.808;2023-12-20T06:19:33;18.85;;;5.55;;
43248;SDS011;29216;51.248;6.808;2023-12-20T06:21:59;21.98;;;6.43;;
43248;SDS011;29216;51.248;6.808;2023-12-20T06:24:25;19.30;;;5.28;;
43248;SDS011;29216;51.248;6.808;2023-12-20T06:26:53;25.33;;;6.63;;
43248;SDS011;29216;51.248;6.808;2023-12-20T06:29:20;20.52;;;6.25;;
43248;SDS011;29216;51.248;6.808;2023-12-20T06:31:46;22.50;;;5.53;;
43248;SDS011;29216;51.248;6.808;2023-12-20T06:34:12;20.13;;;5.45;;
43248;SDS011;29216;51.248;6.808;2023-12-20T06:36:38;16.35;;;5.63;;
43248;SDS011;29216;51.248;6.808;2023-12-20T06:39:03;21.95;;;6.07;;
43248;SDS011;29216;51.248;6.808;2023-12-20T06:41:30;15.95;;;4.78;;
43248;SDS011;29216;51.248;6.808;2023-12-20T06:43:56;18.75;;;6.10;;
43248;SDS011;29216;51.248;6.808;2023-12-20T06:46:21;14.60;;;5.10;;
43248;SDS011;29216;51.248;6.808;2023-12-20T06:48:47;16.08;;;4.65;;
43248;SDS011;29216;51.248;6.808;2023-12-20T06:51:14;18.77;;;5.00;;
43248;SDS011;29216;51.248;6.808;2023-12-20T06:53:40;20.83;;;6.18;;
43248;SDS011;29216;51.248;6.808;2023-12-20T06:56:07;13.93;;;5.43;;
43248;SDS011;29216;51.248;6.808;2023-12-20T06:58:33;25.23;;;5.93;;
43248;SDS011;29216;51.248;6.808;2023-12-20T07:01:00;17.42;;;4.90;;
43248;SDS011;29216;51.248;6.808;2023-12-20T07:03:26;22.02;;;5.53;;
43248;SDS011;29216;51.248;6.808;2023-12-20T07:05:52;20.05;;;5.10;;
43248;SDS011;29216;51.248;6.808;2023-12-20T07:08:18;22.45;;;5.50;;
43248;SDS011;29216;51.248;6.808;2023-12-20T07:10:44;17.42;;;5.18;;
43248;SDS011;29216;51.248;6.808;2023-12-20T07:13:10;21.08;;;5.32;;
43248;SDS011;29216;51.248;6.808;2023-12-20T07:15:37;27.52;;;5.30;;
43248;SDS011;29216;51.248;6.808;2023-12-20T07:18:03;15.35;;;4.80;;
43248;SDS011;29216;51.248;6.808;2023-12-20T07:20:30;22.48;;;5.22;;
43248;SDS011;29216;51.248;6.808;2023-12-20T07:22:56;11.88;;;4.43;;
43248;SDS011;29216;51.248;6.808;2023-12-20T07:25:22;16.27;;;5.93;;
43248;SDS011;29216;51.248;6.808;2023-12-20T07:27:48;21.15;;;5.15;;
43248;SDS011;29216;51.248;6.808;2023-12-20T07:30:14;18.83;;;6.57;;
43248;SDS011;29216;51.248;6.808;2023-12-20T07:32:40;17.58;;;5.47;;
43248;SDS011;29216;51.248;6.808;2023-12-20T07:35:06;23.50;;;5.20;;
43248;SDS011;29216;51.248;6.808;2023-12-20T07:37:32;18.08;;;5.07;;
43248;SDS011;29216;51.248;6.808;2023-12-20T07:39:58;26.00;;;5.72;;
43248;SDS011;29216;51.248;6.808;2023-12-20T07:42:24;23.75;;;5.55;;
43248;SDS011;29216;51.248;6.808;2023-12-20T07:44:50;14.52;;;4.82;;
43248;SDS011;29216;51.248;6.808;2023-12-20T07:47:16;12.00;;;4.55;;
43248;SDS011;29216;51.248;6.808;2023-12-20T07:49:46;16.55;;;4.63;;
43248;SDS011;29216;51.248;6.808;2023-12-20T07:52:12;23.45;;;6.03;;
43248;SDS011;29216;51.248;6.808;2023-12-20T07:54:38;14.02;;;4.68;;
43248;SDS011;29216;51.248;6.808;2023-12-20T07:57:04;14.27;;;4.85;;
43248;SDS011;29216;51.248;6.808;2023-12-20T07:59:30;19.83;;;5.25;;
43248;SDS011;29216;51.248;6.808;2023-12-20T08:01:56;17.70;;;4.85;;
43248;SDS011;29216;51.248;6.808;2023-12-20T08:04:22;21.63;;;5.88;;
43248;SDS011;29216;51.248;6.808;2023-12-20T08:06:48;12.27;;;5.03;;
43248;SDS011;29216;51.248;6.808;2023-12-20T08:09:14;24.80;;;4.78;;
43248;SDS011;29216;51.248;6.808;2023-12-20T08:11:44;18.65;;;5.18;;
43248;SDS011;29216;51.248;6.808;2023-12-20T08:14:10;15.73;;;4.72;;
43248;SDS011;29216;51.248;6.808;2023-12-20T08:16:36;17.38;;;4.65;;
43248;SDS011;29216;51.248;6.808;2023-12-20T08:19:03;17.83;;;4.88;;
43248;SDS011;29216;51.248;6.808;2023-12-20T08:21:29;20.98;;;5.13;;
43248;SDS011;29216;51.248;6.808;2023-12-20T08:23:55;19.88;;;4.30;;
43248;SDS011;29216;51.248;6.808;2023-12-20T08:26:21;19.92;;;5.45;;
43248;SDS011;29216;51.248;6.808;2023-12-20T08:28:48;17.30;;;4.88;;
43248;SDS011;29216;51.248;6.808;2023-12-20T08:31:14;15.65;;;4.57;;
43248;SDS011;29216;51.248;6.808;2023-12-20T08:33:41;16.75;;;5.55;;
43248;SDS011;29216;51.248;6.808;2023-12-20T08:36:07;16.58;;;5.68;;
43248;SDS011;29216;51.248;6.808;2023-12-20T08:38:33;16.75;;;4.30;;
43248;SDS011;29216;51.248;6.808;2023-12-20T08:40:59;16.05;;;4.43;;
43248;SDS011;29216;51.248;6.808;2023-12-20T08:43:26;11.48;;;4.15;;
43248;SDS011;29216;51.248;6.808;2023-12-20T08:45:52;19.63;;;5.53;;
43248;SDS011;29216;51.248;6.808;2023-12-20T08:48:18;15.45;;;4.97;;
43248;SDS011;29216;51.248;6.808;2023-12-20T08:50:44;21.83;;;4.82;;
43248;SDS011;29216;51.248;6.808;2023-12-20T08:53:10;21.83;;;5.07;;
43248;SDS011;29216;51.248;6.808;2023-12-20T08:55:36;18.83;;;4.80;;
43248;SDS011;29216;51.248;6.808;2023-12-20T08:58:02;17.33;;;4.35;;
43248;SDS011;29216;51.248;6.808;2023-12-20T09:00:28;19.52;;;5.03;;
43248;SDS011;29216;51.248;6.808;2023-12-20T09:02:54;18.27;;;4.45;;
43248;SDS011;29216;51.248;6.808;2023-12-20T09:05:20;23.13;;;4.38;;
43248;SDS011;29216;51.248;6.808;2023-12-20T09:07:47;15.63;;;4.93;;
43248;SDS011;29216;51.248;6.808;2023-12-20T09:10:13;15.07;;;4.47;;
43248;SDS011;29216;51.248;6.808;2023-12-20T09:12:39;17.15;;;4.70;;
43248;SDS011;29216;51.248;6.808;2023-12-20T09:15:06;17.48;;;4.72;;
43248;SDS011;29216;51.248;6.808;2023-12-20T09:17:32;16.63;;;4.50;;
43248;SDS011;29216;51.248;6.808;2023-12-20T09:19:58;19.55;;;4.70;;
43248;SDS011;29216;51.248;6.808;2023-12-20T09:22:25;16.10;;;4.15;;
43248;SDS011;29216;51.248;6.808;2023-12-20T09:24:51;11.68;;;3.72;;
43248;SDS011;29216;51.248;6.808;2023-12-20T09:27:17;11.43;;;4.15;;
43248;SDS011;29216;51.248;6.808;2023-12-20T09:29:43;19.52;;;5.22;;
43248;SDS011;29216;51.248;6.808;2023-12-20T09:32:09;13.77;;;3.67;;
43248;SDS011;29216;51.248;6.808;2023-12-20T09:34:35;10.30;;;3.70;;
43248;SDS011;29216;51.248;6.808;2023-12-20T09:37:02;12.68;;;3.25;;
43248;SDS011;29216;51.248;6.808;2023-12-20T09:39:28;17.15;;;3.85;;
43248;SDS011;29216;51.248;6.808;2023-12-20T09:42:00;18.45;;;3.97;;
43248;SDS011;29216;51.248;6.808;2023-12-20T09:44:26;16.42;;;3.95;;
43248;SDS011;29216;51.248;6.808;2023-12-20T09:46:52;12.75;;;3.35;;
43248;SDS011;29216;51.248;6.808;2023-12-20T09:49:20;17.40;;;3.83;;
43248;SDS011;29216;51.248;6.808;2023-12-20T09:51:47;16.80;;;3.80;;
43248;SDS011;29216;51.248;6.808;2023-12-20T09:54:16;11.32;;;3.10;;
43248;SDS011;29216;51.248;6.808;2023-12-20T09:56:43;16.50;;;4.22;;
43248;SDS011;29216;51.248;6.808;2023-12-20T09:59:09;13.23;;;3.50;;
43248;SDS011;29216;51.248;6.808;2023-12-20T10:01:35;16.33;;;4.38;;
43248;SDS011;29216;51.248;6.808;2023-12-20T10:04:06;13.50;;;3.95;;
43248;SDS011;29216;51.248;6.808;2023-12-20T10:06:36;7.82;;;3.40;;
43248;SDS011;29216;51.248;6.808;2023-12-20T10:09:02;15.05;;;3.58;;
43248;SDS011;29216;51.248;6.808;2023-12-20T10:11:29;18.30;;;4.18;;
43248;SDS011;29216;51.248;6.808;2023-12-20T10:13:58;16.08;;;4.28;;
43248;SDS011;29216;51.248;6.808;2023-12-20T10:16:26;13.45;;;3.53;;
43248;SDS011;29216;51.248;6.808;2023-12-20T10:18:55;14.85;;;3.88;;
43248;SDS011;29216;51.248;6.808;2023-12-20T10:21:24;17.30;;;4.10;;
43248;SDS011;29216;51.248;6.808;2023-12-20T10:23:51;15.05;;;3.75;;
43248;SDS011;29216;51.248;6.808;2023-12-20T10:26:21;18.00;;;4.03;;
43248;SDS011;29216;51.248;6.808;2023-12-20T10:28:50;18.70;;;4.20;;
43248;SDS011;29216;51.248;6.808;2023-12-20T10:31:29;14.57;;;3.70;;
43248;SDS011;29216;51.248;6.808;2023-12-20T10:33:59;15.35;;;4.38;;
43248;SDS011;29216;51.248;6.808;2023-12-20T10:36:27;13.45;;;4.05;;
43248;SDS011;29216;51.248;6.808;2023-12-20T10:38:53;17.98;;;5.13;;
43248;SDS011;29216;51.248;6.808;2023-12-20T10:41:23;11.43;;;3.50;;
43248;SDS011;29216;51.248;6.808;2023-12-20T10:43:51;11.50;;;3.92;;
43248;SDS011;29216;51.248;6.808;2023-12-20T10:46:19;12.55;;;3.50;;
43248;SDS011;29216;51.248;6.808;2023-12-20T10:48:45;17.10;;;4.38;;
43248;SDS011;29216;51.248;6.808;2023-12-20T10:51:11;15.30;;;3.95;;
43248;SDS011;29216;51.248;6.808;2023-12-20T10:53:37;16.83;;;4.88;;
43248;SDS011;29216;51.248;6.808;2023-12-20T10:56:05;15.98;;;3.75;;
43248;SDS011;29216;51.248;6.808;2023-12-20T10:58:31;15.25;;;4.18;;
43248;SDS011;29216;51.248;6.808;2023-12-20T11:00:59;17.08;;;5.05;;
43248;SDS011;29216;51.248;6.808;2023-12-20T11:03:29;17.13;;;3.53;;
43248;SDS011;29216;51.248;6.808;2023-12-20T11:13:44;16.33;;;4.22;;
43248;SDS011;29216;51.248;6.808;2023-12-20T11:16:13;14.50;;;4.75;;
43248;SDS011;29216;51.248;6.808;2023-12-20T11:18:40;13.35;;;4.00;;
43248;SDS011;29216;51.248;6.808;2023-12-20T11:21:07;21.50;;;4.60;;
43248;SDS011;29216;51.248;6.808;2023-12-20T11:23:33;16.73;;;3.97;;
43248;SDS011;29216;51.248;6.808;2023-12-20T11:25:59;12.50;;;3.40;;
43248;SDS011;29216;51.248;6.808;2023-12-20T11:28:26;10.07;;;3.20;;
43248;SDS011;29216;51.248;6.808;2023-12-20T11:33:36;16.77;;;4.15;;
43248;SDS011;29216;51.248;6.808;2023-12-20T11:36:03;13.55;;;3.95;;
43248;SDS011;29216;51.248;6.808;2023-12-20T11:38:36;11.40;;;3.60;;
43248;SDS011;29216;51.248;6.808;2023-12-20T11:41:04;14.07;;;3.40;;
43248;SDS011;29216;51.248;6.808;2023-12-20T11:43:37;12.05;;;3.42;;
43248;SDS011;29216;51.248;6.808;2023-12-20T11:46:07;12.02;;;3.40;;
43248;SDS011;29216;51.248;6.808;2023-12-20T11:48:35;11.70;;;3.58;;
43248;SDS011;29216;51.248;6.808;2023-12-20T11:51:01;14.55;;;4.30;;
43248;SDS011;29216;51.248;6.808;2023-12-20T11:53:28;16.95;;;4.35;;
43248;SDS011;29216;51.248;6.808;2023-12-20T11:55:56;13.73;;;4.07;;
43248;SDS011;29216;51.248;6.808;2023-12-20T11:58:22;11.77;;;3.67;;
43248;SDS011;29216;51.248;6.808;2023-12-20T12:00:49;11.32;;;3.25;;
43248;SDS011;29216;51.248;6.808;2023-12-20T12:03:16;21.17;;;4.30;;
43248;SDS011;29216;51.248;6.808;2023-12-20T12:05:42;21.00;;;4.07;;
43248;SDS011;29216;51.248;6.808;2023-12-20T12:08:08;13.88;;;3.75;;
43248;SDS011;29216;51.248;6.808;2023-12-20T12:10:34;12.80;;;3.92;;
43248;SDS011;29216;51.248;6.808;2023-12-20T12:13:00;18.05;;;4.13;;
43248;SDS011;29216;51.248;6.808;2023-12-20T12:15:26;17.92;;;3.85;;
43248;SDS011;29216;51.248;6.808;2023-12-20T12:17:52;11.45;;;3.47;;
43248;SDS011;29216;51.248;6.808;2023-12-20T12:20:19;18.52;;;4.07;;
43248;SDS011;29216;51.248;6.808;2023-12-20T12:22:45;10.27;;;3.30;;
43248;SDS011;29216;51.248;6.808;2023-12-20T12:25:15;14.48;;;3.58;;
43248;SDS011;29216;51.248;6.808;2023-12-20T12:27:42;17.25;;;5.35;;
43248;SDS011;29216;51.248;6.808;2023-12-20T12:30:08;16.35;;;4.30;;
43248;SDS011;29216;51.248;6.808;2023-12-20T12:32:34;11.45;;;3.70;;
43248;SDS011;29216;51.248;6.808;2023-12-20T12:35:02;12.27;;;4.25;;
43248;SDS011;29216;51.248;6.808;2023-12-20T12:37:29;10.50;;;3.50;;
43248;SDS011;29216;51.248;6.808;2023-12-20T12:39:55;15.13;;;4.57;;
43248;SDS011;29216;51.248;6.808;2023-12-20T12:42:21;8.80;;;3.63;;
43248;SDS011;29216;51.248;6.808;2023-12-20T12:44:50;10.73;;;3.17;;
43248;SDS011;29216;51.248;6.808;2023-12-20T12:47:17;10.25;;;3.25;;
43248;SDS011;29216;51.248;6.808;2023-12-20T12:49:43;13.05;;;4.80;;
43248;SDS011;29216;51.248;6.808;2023-12-20T12:52:09;16.40;;;4.38;;
43248;SDS011;29216;51.248;6.808;2023-12-20T12:54:35;10.05;;;3.42;;
43248;SDS011;29216;51.248;6.808;2023-12-20T12:57:01;10.82;;;3.67;;
43248;SDS011;29216;51.248;6.808;2023-12-20T12:59:27;15.80;;;4.88;;
43248;SDS011;29216;51.248;6.808;2023-12-20T13:01:53;9.60;;;3.60;;
43248;SDS011;29216;51.248;6.808;2023-12-20T13:04:19;19.88;;;3.88;;
43248;SDS011;29216;51.248;6.808;2023-12-20T13:06:45;13.55;;;3.70;;
43248;SDS011;29216;51.248;6.808;2023-12-20T13:09:12;12.45;;;4.10;;
43248;SDS011;29216;51.248;6.808;2023-12-20T13:11:38;14.07;;;4.75;;
43248;SDS011;29216;51.248;6.808;2023-12-20T13:14:04;14.20;;;3.78;;
43248;SDS011;29216;51.248;6.808;2023-12-20T13:16:30;14.70;;;3.95;;
43248;SDS011;29216;51.248;6.808;2023-12-20T13:18:56;15.68;;;4.68;;
43248;SDS011;29216;51.248;6.808;2023-12-20T13:21:22;14.35;;;4.25;;
43248;SDS011;29216;51.248;6.808;2023-12-20T13:23:48;13.27;;;4.28;;
43248;SDS011;29216;51.248;6.808;2023-12-20T13:26:14;16.30;;;4.60;;
43248;SDS011;29216;51.248;6.808;2023-12-20T13:28:40;16.30;;;4.30;;
43248;SDS011;29216;51.248;6.808;2023-12-20T13:31:06;17.48;;;4.70;;
43248;SDS011;29216;51.248;6.808;2023-12-20T13:33:32;14.10;;;4.45;;
43248;SDS011;29216;51.248;6.808;2023-12-20T13:35:58;18.10;;;5.85;;
43248;SDS011;29216;51.248;6.808;2023-12-20T13:38:24;14.73;;;4.85;;
43248;SDS011;29216;51.248;6.808;2023-12-20T13:40:50;25.45;;;4.43;;
43248;SDS011;29216;51.248;6.808;2023-12-20T13:43:16;17.95;;;5.13;;
43248;SDS011;29216;51.248;6.808;2023-12-20T13:45:45;12.50;;;5.07;;
43248;SDS011;29216;51.248;6.808;2023-12-20T13:48:12;8.55;;;4.68;;
43248;SDS011;29216;51.248;6.808;2023-12-20T13:50:38;17.00;;;5.22;;
43248;SDS011;29216;51.248;6.808;2023-12-20T13:53:04;16.48;;;5.30;;
43248;SDS011;29216;51.248;6.808;2023-12-20T13:55:30;15.88;;;5.05;;
43248;SDS011;29216;51.248;6.808;2023-12-20T13:57:56;14.93;;;4.22;;
43248;SDS011;29216;51.248;6.808;2023-12-20T14:00:22;12.02;;;4.93;;
43248;SDS011;29216;51.248;6.808;2023-12-20T14:02:48;20.13;;;4.65;;
43248;SDS011;29216;51.248;6.808;2023-12-20T14:05:15;20.80;;;5.00;;
43248;SDS011;29216;51.248;6.808;2023-12-20T14:07:42;16.85;;;4.55;;
43248;SDS011;29216;51.248;6.808;2023-12-20T14:10:10;14.75;;;5.00;;
43248;SDS011;29216;51.248;6.808;2023-12-20T14:12:36;15.30;;;4.88;;
43248;SDS011;29216;51.248;6.808;2023-12-20T14:15:03;12.98;;;4.88;;
43248;SDS011;29216;51.248;6.808;2023-12-20T14:17:34;15.10;;;4.72;;
43248;SDS011;29216;51.248;6.808;2023-12-20T14:20:00;15.20;;;4.40;;
43248;SDS011;29216;51.248;6.808;2023-12-20T14:22:26;15.52;;;5.30;;
43248;SDS011;29216;51.248;6.808;2023-12-20T14:24:54;13.85;;;4.03;;
43248;SDS011;29216;51.248;6.808;2023-12-20T14:27:20;17.08;;;4.53;;
43248;SDS011;29216;51.248;6.808;2023-12-20T14:29:49;9.85;;;4.05;;
43248;SDS011;29216;51.248;6.808;2023-12-20T14:32:15;10.55;;;4.60;;
43248;SDS011;29216;51.248;6.808;2023-12-20T14:34:41;15.07;;;4.30;;
43248;SDS011;29216;51.248;6.808;2023-12-20T14:37:07;13.50;;;4.38;;
43248;SDS011;29216;51.248;6.808;2023-12-20T14:39:33;11.93;;;4.55;;
43248;SDS011;29216;51.248;6.808;2023-12-20T14:41:59;14.30;;;4.72;;
43248;SDS011;29216;51.248;6.808;2023-12-20T14:44:25;12.68;;;4.40;;